Time;durP1;ratioP1;P1;durP2;ratioP2;P2;SDS_P1;SDS_P2;PMS_P1;PMS_P2;Temp;Humidity;BMP_temperature;BMP_pressure;BME280_temperature;BME280_humidity;BME280_pressure;Samples;Min_cycle;Max_cycle;Signal;HPM_P1;HPM_P2
2023/01/12 00:00:07;;;;;;;6.47;1.70;;;;;;;8.02;100.00;100407.97;686458;28;1247;-64
2023/01/12 00:00:32;;;;;;;8.98;1.80;;;;;;;8.17;100.00;100409.75;687085;28;1270;-62
2023/01/12 00:00:53;;;;;;;9.33;1.80;;;;;;;8.21;100.00;100415.81;687276;28;1302;-62
2023/01/12 00:01:14;;;;;;;9.10;1.70;;;;;;;8.18;100.00;100411.47;687185;28;4522;-63
2023/01/12 00:01:40;;;;;;;7.43;1.80;;;;;;;8.27;100.00;100415.81;688515;28;1345;-64
2023/01/12 00:02:00;;;;;;;9.10;1.73;;;;;;;8.33;100.00;100410.59;688146;28;1337;-65
2023/01/12 00:02:21;;;;;;;9.63;1.70;;;;;;;8.35;100.00;100408.88;688253;28;1468;-62
2023/01/12 00:02:41;;;;;;;6.28;1.58;;;;;;;8.34;100.00;100400.19;688248;28;1313;-62
2023/01/12 00:03:01;;;;;;;7.87;2.00;;;;;;;8.32;100.00;100404.53;687364;28;1254;-64
2023/01/12 00:03:22;;;;;;;8.17;1.87;;;;;;;8.29;100.00;100401.06;688763;28;1290;-62
2023/01/12 00:03:42;;;;;;;5.93;1.58;;;;;;;8.27;100.00;100397.59;687389;28;1493;-63
2023/01/12 00:04:03;;;;;;;6.97;1.63;;;;;;;8.31;100.00;100394.97;687685;28;4632;-63
2023/01/12 00:04:23;;;;;;;8.50;1.90;;;;;;;8.33;100.00;100394.97;689014;28;1525;-62
2023/01/12 00:04:44;;;;;;;7.80;1.58;;;;;;;8.26;100.00;100401.06;688671;28;1561;-62
2023/01/12 00:05:04;;;;;;;9.73;1.60;;;;;;;8.17;100.00;100394.97;687686;28;1329;-66
2023/01/12 00:05:25;;;;;;;7.85;1.70;;;;;;;8.23;100.00;100403.66;689569;28;1496;-63
2023/01/12 00:05:45;;;;;;;6.40;1.43;;;;;;;8.23;100.00;100407.13;686424;28;1484;-62
2023/01/12 00:06:06;;;;;;;7.43;1.55;;;;;;;8.21;100.00;100408.88;681560;28;2371;-63
2023/01/12 00:06:28;;;;;;;7.78;1.90;;;;;;;8.22;100.00;100409.75;684543;28;1310;-66
2023/01/12 00:06:49;;;;;;;7.03;1.70;;;;;;;8.34;100.00;100392.38;687929;28;1500;-64
2023/01/12 00:07:11;;;;;;;6.67;1.90;;;;;;;8.43;100.00;100401.06;685604;28;4481;-63
2023/01/12 00:07:32;;;;;;;8.13;2.08;;;;;;;8.43;100.00;100388.03;686747;28;1358;-64
2023/01/12 00:07:52;;;;;;;7.55;1.63;;;;;;;8.37;100.00;100399.31;685674;28;1907;-59
2023/01/12 00:08:12;;;;;;;8.03;1.73;;;;;;;8.44;100.00;100398.44;685653;28;1111;-63
2023/01/12 00:08:33;;;;;;;7.53;1.70;;;;;;;8.48;100.00;100396.75;683046;28;1420;-62
2023/01/12 00:08:54;;;;;;;5.65;1.40;;;;;;;8.51;100.00;100384.59;683787;28;1742;-63
2023/01/12 00:09:14;;;;;;;6.40;1.63;;;;;;;8.56;100.00;100391.56;683105;28;1312;-66
2023/01/12 00:09:35;;;;;;;7.43;1.63;;;;;;;8.52;100.00;100396.75;684594;28;1367;-63
2023/01/12 00:09:55;;;;;;;6.72;1.73;;;;;;;8.45;100.00;100396.75;687655;28;4373;-64
2023/01/12 00:10:16;;;;;;;6.13;1.70;;;;;;;8.48;100.00;100400.22;687317;28;1229;-64
2023/01/12 00:10:36;;;;;;;7.57;1.50;;;;;;;8.47;100.00;100403.72;688874;28;1374;-63
2023/01/12 00:10:56;;;;;;;6.83;1.40;;;;;;;8.58;100.00;100392.41;687806;28;1298;-63
2023/01/12 00:11:18;;;;;;;6.97;1.45;;;;;;;8.58;100.00;100395.84;688552;28;1372;-62
2023/01/12 00:11:39;;;;;;;6.80;1.70;;;;;;;8.55;100.00;100395.88;688503;28;1290;-65
2023/01/12 00:12:01;;;;;;;10.57;1.60;;;;;;;8.61;100.00;100395.00;684826;28;1604;-64
2023/01/12 00:12:21;;;;;;;7.40;1.50;;;;;;;8.52;100.00;100398.50;685904;28;1362;-63
2023/01/12 00:12:41;;;;;;;7.20;1.40;;;;;;;8.44;100.00;100393.22;684759;28;1330;-63
2023/01/12 00:13:02;;;;;;;7.27;1.57;;;;;;;8.54;100.00;100399.34;684342;28;4441;-64
2023/01/12 00:13:22;;;;;;;6.97;1.80;;;;;;;8.60;100.00;100390.66;686227;28;1545;-65
2023/01/12 00:13:43;;;;;;;6.47;1.80;;;;;;;8.58;100.00;100384.59;688688;28;1337;-65
2023/01/12 00:14:08;;;;;;;6.75;2.00;;;;;;;8.58;100.00;100385.44;688447;28;1636;-61
2023/01/12 00:14:28;;;;;;;7.13;1.65;;;;;;;8.60;100.00;100393.25;688621;28;1327;-65
2023/01/12 00:14:48;;;;;;;9.53;1.70;;;;;;;8.56;100.00;100381.13;688310;28;1330;-66
2023/01/12 00:15:09;;;;;;;7.43;1.60;;;;;;;8.52;100.00;100386.31;686947;28;1461;-65
2023/01/12 00:16:53;;;;;;;6.85;1.58;;;;;;;8.42;100.00;100396.69;687251;28;1325;-66
2023/01/12 00:17:16;;;;;;;5.78;1.70;;;;;;;8.43;100.00;100396.72;689209;28;1203;-64
2023/01/12 00:17:36;;;;;;;7.10;2.10;;;;;;;8.45;100.00;100396.75;688153;28;1307;-64
2023/01/12 00:17:57;;;;;;;6.67;1.73;;;;;;;8.48;100.00;100399.34;687635;28;1397;-63
2023/01/12 00:18:17;;;;;;;9.40;1.80;;;;;;;8.49;100.00;100401.09;687757;28;1342;-64
2023/01/12 00:18:37;;;;;;;7.68;1.48;;;;;;;8.57;100.00;100377.63;687180;28;1345;-64
2023/01/12 00:18:58;;;;;;;6.00;1.50;;;;;;;8.53;100.00;100397.63;688690;28;4420;-64
2023/01/12 00:19:20;;;;;;;5.75;1.40;;;;;;;8.50;100.00;100382.84;686551;28;1386;-61
2023/01/12 00:19:41;;;;;;;6.82;1.40;;;;;;;8.49;100.00;100386.31;685735;28;1334;-62
2023/01/12 00:20:03;;;;;;;4.25;1.30;;;;;;;8.56;100.00;100386.34;682138;28;3458;-64
2023/01/12 00:20:23;;;;;;;5.85;1.48;;;;;;;8.47;100.00;100393.28;683144;28;1501;-65
2023/01/12 00:20:48;;;;;;;6.50;1.70;;;;;;;8.44;100.00;100394.97;685494;28;1347;-65
2023/01/12 00:21:08;;;;;;;6.18;1.70;;;;;;;8.42;100.00;100394.09;685559;28;1291;-62
2023/01/12 00:21:33;;;;;;;5.70;1.50;;;;;;;8.48;100.00;100392.41;687988;28;1238;-63
2023/01/12 00:22:16;;;;;;;8.20;1.83;;;;;;;8.45;100.00;100386.34;686697;28;4773;-63
2023/01/12 00:22:37;;;;;;;8.15;1.70;;;;;;;8.45;100.00;100391.56;688461;28;1391;-63
2023/01/12 00:22:57;;;;;;;7.93;2.03;;;;;;;8.43;100.00;100396.72;689226;28;1299;-64
2023/01/12 00:23:18;;;;;;;7.55;2.05;;;;;;;8.41;100.00;100401.06;688099;28;1351;-63
2023/01/12 00:23:39;;;;;;;8.20;1.95;;;;;;;8.43;100.00;100408.88;688179;28;1131;-63
2023/01/12 00:23:59;;;;;;;7.40;1.40;;;;;;;8.33;100.00;100394.97;687369;28;1240;-67
2023/01/12 00:24:19;;;;;;;5.78;1.20;;;;;;;8.27;100.00;100406.25;688815;28;1520;-62
2023/01/12 00:24:42;;;;;;;6.83;1.67;;;;;;;8.37;100.00;100401.94;688940;28;1382;-64
2023/01/12 00:25:03;;;;;;;7.10;1.80;;;;;;;8.32;100.00;100398.44;690674;28;4725;-63
2023/01/12 00:25:23;;;;;;;6.60;1.65;;;;;;;8.32;100.00;100394.13;690385;28;1496;-62
2023/01/12 00:25:49;;;;;;;8.47;1.83;;;;;;;8.37;100.00;100395.84;688297;28;1127;-63
2023/01/12 00:26:10;;;;;;;5.95;1.48;;;;;;;8.32;100.00;100393.22;688425;28;1215;-63
2023/01/12 00:26:31;;;;;;;6.88;1.60;;;;;;;8.29;100.00;100404.53;687392;28;1219;-63
2023/01/12 00:26:52;;;;;;;6.75;1.40;;;;;;;8.31;100.00;100401.94;689094;28;1159;-62
2023/01/12 00:27:16;;;;;;;6.20;1.70;;;;;;;8.33;100.00;100405.41;688366;28;1383;-63
2023/01/12 00:27:36;;;;;;;5.57;1.80;;;;;;;8.37;100.00;100404.53;687506;28;1543;-62
2023/01/12 00:27:56;;;;;;;4.67;1.37;;;;;;;8.35;100.00;100403.69;685332;28;4936;-63
2023/01/12 00:28:17;;;;;;;5.28;1.50;;;;;;;8.35;100.00;100401.94;686110;28;1319;-63
2023/01/12 00:28:38;;;;;;;9.37;2.77;;;;;;;8.32;100.00;100408.84;689067;28;1326;-63
2023/01/12 00:28:58;;;;;;;9.75;2.72;;;;;;;8.27;100.00;100405.41;688028;28;1027;-66
2023/01/12 00:29:20;;;;;;;9.15;1.55;;;;;;;8.22;100.00;100409.75;687146;28;1250;-65
2023/01/12 00:29:41;;;;;;;6.43;1.48;;;;;;;8.15;100.00;100407.09;688759;28;1247;-65
2023/01/12 00:30:01;;;;;;;5.18;1.48;;;;;;;8.13;100.00;100419.28;689110;28;1544;-63
2023/01/12 00:30:22;;;;;;;5.90;1.40;;;;;;;8.14;100.00;100417.53;688966;28;1772;-62
2023/01/12 00:30:42;;;;;;;6.90;1.60;;;;;;;8.16;100.00;100414.06;688174;28;1325;-63
2023/01/12 00:31:06;;;;;;;6.72;1.40;;;;;;;8.11;100.00;100420.13;687158;28;4409;-63
2023/01/12 00:31:27;;;;;;;5.97;1.50;;;;;;;8.06;100.00;100404.50;689067;28;1354;-62
2023/01/12 00:31:48;;;;;;;7.85;1.73;;;;;;;8.13;100.00;100408.84;688119;28;1409;-63
2023/01/12 00:32:12;;;;;;;7.15;1.65;;;;;;;8.08;100.00;100410.56;687323;28;1294;-63
2023/01/12 00:32:32;;;;;;;6.45;1.63;;;;;;;8.07;100.00;100423.59;687933;28;1368;-63
2023/01/12 00:32:53;;;;;;;6.33;1.50;;;;;;;8.13;100.00;100411.47;688035;28;1282;-63
2023/01/12 00:33:13;;;;;;;7.40;1.58;;;;;;;8.12;100.00;100422.72;689019;28;1494;-63
2023/01/12 00:33:35;;;;;;;6.97;1.60;;;;;;;8.13;100.00;100416.66;688475;28;1171;-63
2023/01/12 00:33:55;;;;;;;7.15;1.52;;;;;;;8.15;100.00;100416.66;688162;28;4304;-63
2023/01/12 00:34:16;;;;;;;6.23;1.70;;;;;;;8.10;100.00;100416.66;687915;28;1501;-63
2023/01/12 00:34:36;;;;;;;6.70;1.80;;;;;;;8.06;100.00;100412.31;687586;28;1374;-62
2023/01/12 00:34:57;;;;;;;6.97;1.57;;;;;;;8.03;100.00;100412.31;688560;28;1278;-63
2023/01/12 00:35:20;;;;;;;6.20;1.50;;;;;;;8.03;100.00;100417.53;688711;28;1346;-63
2023/01/12 00:35:41;;;;;;;6.05;1.70;;;;;;;8.08;100.00;100413.19;687898;28;1271;-63
2023/01/12 00:36:12;;;;;;;6.37;1.57;;;;;;;8.07;100.00;100408.88;689084;28;1374;-63
2023/01/12 00:36:33;;;;;;;6.47;1.58;;;;;;;8.15;100.00;100427.09;689173;28;1052;-66
2023/01/12 00:36:53;;;;;;;6.17;1.60;;;;;;;8.23;100.00;100406.28;688842;28;1253;-64
2023/01/12 00:37:14;;;;;;;5.45;1.30;;;;;;;8.26;100.00;100408.88;687598;28;4308;-63
2023/01/12 00:37:34;;;;;;;6.90;1.60;;;;;;;8.27;100.00;100413.22;688711;28;1308;-62
2023/01/12 00:37:55;;;;;;;5.47;1.50;;;;;;;8.28;100.00;100420.16;688103;28;1278;-63
2023/01/12 00:38:15;;;;;;;5.90;1.67;;;;;;;8.19;100.00;100414.06;688741;28;1198;-65
2023/01/12 00:38:37;;;;;;;5.55;1.52;;;;;;;8.25;100.00;100422.75;689202;28;1337;-64
2023/01/12 00:38:57;;;;;;;4.90;1.30;;;;;;;8.27;100.00;100418.44;685799;28;1274;-60
2023/01/12 00:39:18;;;;;;;6.13;1.60;;;;;;;8.23;100.00;100414.09;687632;28;1356;-64
2023/01/12 00:39:38;;;;;;;6.60;1.77;;;;;;;8.15;100.00;100417.53;688408;28;1477;-62
2023/01/12 00:39:59;;;;;;;5.17;1.63;;;;;;;8.26;100.00;100414.06;687491;28;4741;-63
2023/01/12 00:40:19;;;;;;;4.90;1.53;;;;;;;8.27;100.00;100400.19;688314;28;1205;-62
2023/01/12 00:40:39;;;;;;;6.43;1.57;;;;;;;8.25;100.00;100402.81;689232;28;1289;-63
2023/01/12 00:41:07;;;;;;;7.65;1.80;;;;;;;8.27;100.00;100408.00;687739;28;1357;-64
2023/01/12 00:45:34;;;;;;;6.95;1.40;;;;;;;8.09;100.00;100396.69;688630;28;1328;-63
2023/01/12 00:45:55;;;;;;;6.60;1.50;;;;;;;8.10;100.00;100398.44;688058;28;4456;-64
2023/01/12 00:46:17;;;;;;;6.30;1.60;;;;;;;8.18;100.00;100396.72;689014;28;1313;-63
2023/01/12 00:46:37;;;;;;;8.45;1.70;;;;;;;8.17;100.00;100397.56;685422;28;1279;-63
2023/01/12 00:46:58;;;;;;;7.05;1.60;;;;;;;8.21;100.00;100408.88;685308;28;1327;-63
2023/01/12 00:47:19;;;;;;;6.67;1.70;;;;;;;8.22;100.00;100404.53;685619;28;1256;-64
2023/01/12 00:47:41;;;;;;;6.70;1.60;;;;;;;8.18;100.00;100404.53;685458;28;1531;-64
2023/01/12 00:48:02;;;;;;;7.00;1.70;;;;;;;8.15;100.00;100391.50;685136;28;1906;-64
2023/01/12 00:48:23;;;;;;;6.70;1.60;;;;;;;8.13;100.00;100398.44;685476;28;1199;-63
2023/01/12 00:48:43;;;;;;;6.45;1.50;;;;;;;8.14;100.00;100400.19;688221;28;1532;-63
2023/01/12 00:49:04;;;;;;;6.07;1.65;;;;;;;8.04;100.00;100395.81;684736;28;4414;-66
2023/01/12 00:49:25;;;;;;;6.28;1.60;;;;;;;8.08;100.00;100389.75;685815;28;1232;-63
2023/01/12 00:49:45;;;;;;;6.93;1.30;;;;;;;8.10;100.00;100403.66;685418;28;1579;-63
2023/01/12 00:50:06;;;;;;;5.82;1.40;;;;;;;8.18;100.00;100394.13;688208;28;1637;-65
2023/01/12 00:50:27;;;;;;;5.97;1.40;;;;;;;8.18;100.00;100396.72;688904;28;1147;-64
2023/01/12 00:50:47;;;;;;;6.53;1.60;;;;;;;8.19;100.00;100398.44;689216;28;1293;-63
2023/01/12 00:51:07;;;;;;;8.18;1.67;;;;;;;8.18;100.00;100401.03;688667;28;1211;-63
2023/01/12 00:51:28;;;;;;;9.37;1.63;;;;;;;8.21;100.00;100394.97;689721;28;1493;-63
2023/01/12 00:51:48;;;;;;;6.03;1.42;;;;;;;8.20;100.00;100386.31;686679;28;1291;-63
2023/01/12 00:52:11;;;;;;;5.20;1.40;;;;;;;8.23;100.00;100395.84;688198;28;4452;-64
2023/01/12 00:52:32;;;;;;;5.82;1.50;;;;;;;8.27;100.00;100400.19;687333;28;1159;-62
2023/01/12 00:52:52;;;;;;;7.37;1.70;;;;;;;8.29;100.00;100386.31;688568;28;960;-63
2023/01/12 00:53:13;;;;;;;6.88;1.60;;;;;;;8.29;100.00;100401.06;688155;28;1177;-64
2023/01/12 00:53:33;;;;;;;6.33;1.53;;;;;;;8.29;100.00;100385.44;688601;28;1179;-66
2023/01/12 00:53:54;;;;;;;5.90;1.47;;;;;;;8.22;100.00;100386.28;689000;28;1202;-63
2023/01/12 00:54:14;;;;;;;6.97;1.83;;;;;;;8.22;100.00;100397.56;688229;28;1253;-65
2023/01/12 00:54:35;;;;;;;12.05;2.10;;;;;;;8.15;100.00;100391.50;689948;28;1225;-65
2023/01/12 00:54:55;;;;;;;10.80;1.77;;;;;;;8.08;100.00;100391.50;687945;28;4476;-64
2023/01/12 00:55:16;;;;;;;5.93;1.45;;;;;;;8.06;100.00;100399.31;687997;28;1079;-63
2023/01/12 00:55:36;;;;;;;6.97;1.63;;;;;;;8.14;100.00;100394.97;688178;28;1575;-64
2023/01/12 00:56:04;;;;;;;6.78;1.80;;;;;;;8.16;100.00;100390.63;687923;28;1585;-64
2023/01/12 00:56:24;;;;;;;6.43;1.73;;;;;;;8.06;100.00;100395.81;688853;28;1316;-64
2023/01/12 00:56:44;;;;;;;9.70;1.50;;;;;;;8.01;100.00;100388.88;688511;28;1574;-64
2023/01/12 00:57:05;;;;;;;9.43;1.60;;;;;;;8.07;100.00;100389.75;687892;28;1380;-62
2023/01/12 00:57:27;;;;;;;8.50;2.13;;;;;;;8.01;100.00;100393.22;687301;28;1088;-64
2023/01/12 00:57:47;;;;;;;7.00;1.75;;;;;;;8.05;100.00;100396.72;687836;28;1262;-62
2023/01/12 00:58:07;;;;;;;6.17;1.50;;;;;;;8.21;100.00;100381.94;686603;28;4325;-65
2023/01/12 00:58:28;;;;;;;7.13;1.50;;;;;;;8.23;100.00;100388.03;688411;28;1274;-64
2023/01/12 00:58:48;;;;;;;7.35;1.52;;;;;;;8.22;100.00;100386.28;689397;28;1207;-63
2023/01/12 00:59:08;;;;;;;6.70;1.73;;;;;;;8.24;100.00;100388.03;687555;28;1289;-63
2023/01/12 00:59:29;;;;;;;8.18;1.88;;;;;;;8.27;100.00;100388.03;687720;28;1242;-62
2023/01/12 00:59:53;;;;;;;6.80;1.80;;;;;;;8.30;100.00;100389.78;688111;28;1251;-65
2023/01/12 01:00:15;;;;;;;5.43;1.30;;;;;;;8.25;100.00;100387.19;688630;28;1203;-65
2023/01/12 01:00:35;;;;;;;5.82;1.40;;;;;;;8.32;100.00;100382.81;688355;28;1453;-64
2023/01/12 01:01:06;;;;;;;5.80;1.40;;;;;;;8.23;100.00;100394.09;687172;28;4357;-64
2023/01/12 01:01:27;;;;;;;7.25;1.80;;;;;;;8.22;100.00;100381.94;689717;28;1720;-65
2023/01/12 01:01:47;;;;;;;7.63;1.73;;;;;;;8.16;100.00;100382.81;687577;28;1203;-64
2023/01/12 01:02:07;;;;;;;8.13;1.70;;;;;;;8.15;100.00;100382.81;688138;28;1314;-64
2023/01/12 01:02:28;;;;;;;6.77;1.63;;;;;;;8.12;100.00;100391.50;689521;28;1379;-63
2023/01/12 01:02:48;;;;;;;6.20;1.63;;;;;;;8.14;100.00;100391.50;688311;28;1235;-65
2023/01/12 01:03:08;;;;;;;7.00;1.70;;;;;;;8.21;100.00;100387.16;683561;28;1286;-65
2023/01/12 01:03:29;;;;;;;6.83;1.70;;;;;;;8.22;100.00;100383.69;684730;28;1243;-64
2023/01/12 01:03:49;;;;;;;6.00;1.60;;;;;;;8.23;100.00;100398.47;683991;28;1251;-65
2023/01/12 01:04:10;;;;;;;6.63;1.80;;;;;;;8.21;100.00;100397.56;682692;28;4451;-63
2023/01/12 01:04:33;;;;;;;6.30;1.58;;;;;;;8.16;100.00;100388.03;682405;28;1303;-67
2023/01/12 01:04:53;;;;;;;5.90;1.80;;;;;;;8.14;100.00;100389.78;683599;28;1365;-63
2023/01/12 01:05:14;;;;;;;6.30;1.40;;;;;;;8.11;100.00;100389.78;685147;28;1259;-64
2023/01/12 01:05:35;;;;;;;6.28;1.50;;;;;;;8.07;100.00;100395.84;686315;28;1309;-64
2023/01/12 01:06:13;;;;;;;4.93;1.40;;;;;;;8.07;100.00;100389.75;683102;28;1357;-66
2023/01/12 01:06:36;;;;;;;6.15;1.58;;;;;;;8.07;100.00;100393.25;687959;28;1379;-64
2023/01/12 01:06:57;;;;;;;6.22;1.50;;;;;;;8.18;100.00;100394.13;687210;28;4646;-64
2023/01/12 01:07:20;;;;;;;5.97;1.57;;;;;;;8.15;100.00;100396.69;688092;28;1164;-65
2023/01/12 01:07:40;;;;;;;6.88;1.90;;;;;;;8.08;100.00;100392.34;688222;28;1290;-65
2023/01/12 01:08:03;;;;;;;7.07;1.77;;;;;;;8.14;100.00;100397.59;688327;28;1985;-63
2023/01/12 01:08:23;;;;;;;6.90;1.65;;;;;;;8.23;100.00;100388.91;687772;28;1472;-62
2023/01/12 01:08:43;;;;;;;7.22;1.60;;;;;;;8.27;100.00;100385.44;688441;28;1389;-63
2023/01/12 01:09:04;;;;;;;7.10;1.67;;;;;;;8.24;100.00;100389.75;690274;28;1569;-64
2023/01/12 01:09:25;;;;;;;7.88;1.73;;;;;;;8.18;100.00;100386.31;690861;28;1489;-64
2023/01/12 01:09:45;;;;;;;8.37;1.77;;;;;;;8.17;100.00;100399.31;690596;28;1519;-64
2023/01/12 01:10:06;;;;;;;5.73;1.40;;;;;;;8.18;100.00;100396.72;688064;28;4383;-64
2023/01/12 01:10:26;;;;;;;5.35;1.60;;;;;;;8.28;100.00;100386.28;688142;28;1835;-64
2023/01/12 01:10:47;;;;;;;5.82;1.60;;;;;;;8.32;100.00;100388.03;689019;28;1273;-65
2023/01/12 01:11:10;;;;;;;7.40;1.80;;;;;;;8.29;100.00;100388.03;688257;28;1174;-63
2023/01/12 01:11:31;;;;;;;9.18;2.10;;;;;;;8.26;100.00;100393.25;689905;28;1248;-62
2023/01/12 01:11:51;;;;;;;6.85;1.60;;;;;;;8.18;100.00;100388.91;688322;28;1275;-65
2023/01/12 01:12:12;;;;;;;8.02;1.80;;;;;;;8.15;100.00;100390.63;688513;28;1550;-64
2023/01/12 01:12:32;;;;;;;6.30;1.70;;;;;;;8.17;100.00;100381.97;687870;28;1321;-63
2023/01/12 01:12:53;;;;;;;7.93;1.60;;;;;;;8.15;100.00;100385.41;688490;28;1235;-64
2023/01/12 01:13:13;;;;;;;6.23;1.47;;;;;;;8.23;100.00;100388.03;687462;28;4257;-64
2023/01/12 01:13:39;;;;;;;6.50;1.70;;;;;;;8.16;100.00;100393.22;688289;28;1261;-65
2023/01/12 01:14:00;;;;;;;7.13;1.60;;;;;;;8.23;100.00;100382.84;684248;28;1414;-63
2023/01/12 01:14:20;;;;;;;6.85;1.65;;;;;;;8.21;100.00;100388.03;686887;28;1283;-65
2023/01/12 01:14:41;;;;;;;6.43;1.80;;;;;;;8.17;100.00;100379.34;685453;28;1357;-63
2023/01/12 01:15:02;;;;;;;6.47;1.60;;;;;;;8.24;100.00;100387.16;684895;28;1379;-62
2023/01/12 01:15:25;;;;;;;6.30;1.70;;;;;;;8.28;100.00;100388.88;684946;28;1417;-63
2023/01/12 01:15:45;;;;;;;6.28;1.55;;;;;;;8.31;100.00;100386.31;687320;28;1517;-65
2023/01/12 01:16:07;;;;;;;7.23;1.80;;;;;;;8.26;100.00;100381.09;687956;28;4307;-64
2023/01/12 01:16:28;;;;;;;7.32;1.67;;;;;;;8.25;100.00;100389.78;683667;28;4132;-61
2023/01/12 01:16:49;;;;;;;7.03;1.60;;;;;;;8.30;100.00;100393.25;682967;28;1365;-64
2023/01/12 01:17:09;;;;;;;6.30;1.60;;;;;;;8.30;100.00;100388.03;684057;28;1137;-63
2023/01/12 01:17:29;;;;;;;6.40;1.50;;;;;;;8.25;100.00;100386.28;684363;28;1253;-62
2023/01/12 01:17:50;;;;;;;8.27;1.73;;;;;;;8.30;100.00;100389.78;683759;28;1219;-63
2023/01/12 01:18:10;;;;;;;8.40;1.70;;;;;;;8.25;100.00;100391.50;683508;28;1370;-64
2023/01/12 01:18:31;;;;;;;7.13;1.40;;;;;;;8.17;100.00;100388.91;688654;28;1130;-63
2023/01/12 01:18:51;;;;;;;6.15;1.50;;;;;;;8.05;100.00;100384.53;688757;28;1321;-67
2023/01/12 01:19:12;;;;;;;8.05;1.63;;;;;;;8.06;100.00;100388.91;688059;28;4592;-63
2023/01/12 01:19:32;;;;;;;6.77;1.60;;;;;;;8.12;100.00;100383.69;688296;28;1262;-63
2023/01/12 01:19:53;;;;;;;7.78;1.70;;;;;;;8.13;100.00;100392.38;689182;28;1174;-64
2023/01/12 01:20:14;;;;;;;6.50;1.70;;;;;;;8.11;100.00;100394.09;687705;28;1398;-63
2023/01/12 01:20:35;;;;;;;7.30;1.73;;;;;;;8.18;100.00;100377.59;689348;28;1575;-63
2023/01/12 01:20:55;;;;;;;7.28;1.92;;;;;;;8.13;100.00;100387.16;687612;28;1381;-66
2023/01/12 01:21:17;;;;;;;9.10;2.23;;;;;;;8.11;100.00;100394.97;688156;28;1454;-64
2023/01/12 01:21:38;;;;;;;7.80;1.67;;;;;;;8.19;100.00;100380.22;688344;28;1329;-63
2023/01/12 01:21:58;;;;;;;8.00;1.57;;;;;;;8.24;100.00;100389.75;687306;28;4473;-65
2023/01/12 01:22:19;;;;;;;8.93;1.80;;;;;;;8.24;100.00;100387.16;688328;28;1433;-65
2023/01/12 01:22:40;;;;;;;5.85;1.42;;;;;;;8.18;100.00;100386.31;688444;28;1148;-65
2023/01/12 01:23:00;;;;;;;6.00;1.65;;;;;;;8.12;100.00;100388.03;686692;28;1548;-64
2023/01/12 01:23:22;;;;;;;7.32;1.75;;;;;;;8.10;100.00;100385.44;688736;28;1382;-63
2023/01/12 01:23:44;;;;;;;7.22;1.70;;;;;;;8.10;100.00;100394.94;688950;28;1481;-63
2023/01/12 01:24:09;;;;;;;8.38;1.88;;;;;;;8.12;100.00;100386.28;687667;28;1598;-63
2023/01/12 01:24:29;;;;;;;6.93;1.80;;;;;;;8.13;100.00;100376.75;688112;28;1289;-63
2023/01/12 01:24:50;;;;;;;6.65;1.60;;;;;;;8.21;100.00;100380.22;688659;28;1762;-64
2023/01/12 01:25:13;;;;;;;7.57;1.87;;;;;;;8.17;100.00;100384.56;686187;28;4634;-63
2023/01/12 01:25:33;;;;;;;8.02;2.00;;;;;;;8.13;100.00;100388.03;688107;28;1263;-63
2023/01/12 01:25:54;;;;;;;6.72;1.75;;;;;;;8.15;100.00;100399.28;688672;28;1378;-63
2023/01/12 01:26:17;;;;;;;7.22;1.67;;;;;;;8.13;100.00;100393.25;688161;28;1366;-64
2023/01/12 01:26:39;;;;;;;6.57;1.55;;;;;;;8.07;100.00;100388.03;688473;28;1358;-64
2023/01/12 01:27:00;;;;;;;7.50;1.80;;;;;;;8.07;100.00;100387.16;685013;28;1664;-63
2023/01/12 01:27:20;;;;;;;7.40;1.67;;;;;;;8.13;100.00;100392.38;685918;28;1342;-64
2023/01/12 01:27:41;;;;;;;8.50;1.93;;;;;;;8.10;100.00;100389.75;685022;28;1378;-63
2023/01/12 01:28:01;;;;;;;7.23;2.33;;;;;;;8.11;100.00;100400.19;683674;28;4439;-63
2023/01/12 01:28:21;;;;;;;7.83;2.07;;;;;;;8.05;100.00;100397.56;685056;28;1497;-63
2023/01/12 01:28:42;;;;;;;8.53;1.80;;;;;;;8.15;100.00;100380.22;686689;28;1326;-64
2023/01/12 01:29:02;;;;;;;5.95;1.55;;;;;;;8.17;100.00;100389.78;688189;28;1405;-64
2023/01/12 01:29:23;;;;;;;6.90;1.73;;;;;;;8.12;100.00;100382.81;688978;28;1381;-67
2023/01/12 01:29:43;;;;;;;7.78;1.73;;;;;;;8.21;100.00;100395.84;688217;28;1355;-63
2023/01/12 01:30:04;;;;;;;8.20;1.87;;;;;;;8.15;100.00;100391.50;688062;28;1552;-62
2023/01/12 01:30:25;;;;;;;6.63;1.88;;;;;;;8.12;100.00;100378.47;687656;28;1474;-63
2023/01/12 01:30:45;;;;;;;6.05;1.50;;;;;;;8.11;100.00;100384.56;687883;28;1461;-63
2023/01/12 01:31:14;;;;;;;7.85;1.70;;;;;;;8.11;100.00;100381.06;686841;28;4577;-63
2023/01/12 01:31:35;;;;;;;7.18;2.00;;;;;;;8.14;100.00;100375.88;688453;28;1360;-64
2023/01/12 01:31:56;;;;;;;7.47;1.60;;;;;;;8.09;100.00;100393.25;687564;28;1481;-64
2023/01/12 01:32:16;;;;;;;7.82;2.15;;;;;;;8.07;100.00;100387.16;688744;28;1705;-63
2023/01/12 01:32:36;;;;;;;9.43;2.60;;;;;;;8.09;100.00;100386.28;685549;28;1295;-62
2023/01/12 01:32:57;;;;;;;7.83;2.10;;;;;;;8.20;100.00;100378.50;683707;28;1322;-62
2023/01/12 01:33:17;;;;;;;5.87;1.77;;;;;;;8.24;100.00;100384.53;682597;28;1152;-64
2023/01/12 01:33:39;;;;;;;6.97;1.70;;;;;;;8.23;100.00;100388.03;685065;28;1317;-64
2023/01/12 01:33:59;;;;;;;7.57;1.63;;;;;;;8.17;100.00;100378.50;685888;28;4415;-62
2023/01/12 01:34:19;;;;;;;8.35;1.75;;;;;;;8.14;100.00;100386.28;687304;28;1350;-63
2023/01/12 01:34:40;;;;;;;6.83;1.60;;;;;;;8.09;100.00;100398.44;689128;28;1480;-65
2023/01/12 01:35:00;;;;;;;7.82;1.80;;;;;;;8.08;100.00;100392.34;688712;28;1506;-63
2023/01/12 01:35:20;;;;;;;6.80;1.70;;;;;;;8.09;100.00;100383.69;686928;28;1347;-62
2023/01/12 01:35:41;;;;;;;7.50;1.70;;;;;;;8.18;100.00;100382.81;686837;28;1556;-63
2023/01/12 01:36:02;;;;;;;7.33;1.93;;;;;;;8.21;100.00;100384.56;688045;28;1496;-62
2023/01/12 01:36:22;;;;;;;8.00;2.00;;;;;;;8.24;100.00;100389.75;687899;28;1533;-63
2023/01/12 01:36:43;;;;;;;7.57;1.80;;;;;;;8.25;100.00;100386.28;689221;28;1492;-63
2023/01/12 01:37:03;;;;;;;9.00;1.77;;;;;;;8.28;100.00;100388.88;688133;28;4572;-62
2023/01/12 01:37:23;;;;;;;8.50;2.00;;;;;;;8.34;100.00;100387.16;689017;28;1333;-62
2023/01/12 01:37:44;;;;;;;6.90;1.70;;;;;;;8.40;100.00;100381.06;688792;28;1445;-62
2023/01/12 01:38:05;;;;;;;7.10;1.60;;;;;;;8.42;100.00;100374.16;688266;28;1453;-64
2023/01/12 01:38:25;;;;;;;6.53;1.77;;;;;;;8.44;100.00;100380.22;688202;28;1767;-62
2023/01/12 01:38:47;;;;;;;7.15;1.73;;;;;;;8.43;100.00;100375.91;688730;28;5263;-62
2023/01/12 01:39:08;;;;;;;6.63;1.55;;;;;;;8.37;100.00;100377.63;688013;28;1499;-63
2023/01/12 01:39:28;;;;;;;7.03;1.60;;;;;;;8.33;100.00;100376.75;688875;28;1273;-65
2023/01/12 01:39:48;;;;;;;7.37;1.70;;;;;;;8.32;100.00;100377.59;687528;28;1222;-63
2023/01/12 01:40:09;;;;;;;7.20;1.60;;;;;;;8.26;100.00;100377.63;687550;28;4341;-64
2023/01/12 01:40:32;;;;;;;7.32;1.70;;;;;;;8.29;100.00;100377.63;687835;28;1181;-63
2023/01/12 01:40:52;;;;;;;6.40;1.60;;;;;;;8.29;100.00;100377.63;687859;28;1590;-63
2023/01/12 01:41:25;;;;;;;7.50;1.70;;;;;;;8.33;100.00;100380.25;687349;28;1251;-63
2023/01/12 01:41:46;;;;;;;6.90;1.70;;;;;;;8.27;100.00;100368.94;688239;28;1555;-63
2023/01/12 01:42:26;;;;;;;6.32;1.50;;;;;;;8.19;100.00;100369.78;683022;28;1552;-63
2023/01/12 01:42:46;;;;;;;6.43;1.52;;;;;;;8.27;100.00;100367.19;685693;28;1462;-63
2023/01/12 01:43:12;;;;;;;7.55;2.20;;;;;;;8.25;100.00;100360.25;684761;28;4301;-67
2023/01/12 01:43:51;;;;;;;5.05;1.40;;;;;;;8.42;100.00;100366.34;685379;28;1331;-62
2023/01/12 01:44:29;;;;;;;7.50;1.75;;;;;;;8.35;100.00;100375.03;683769;28;1752;-63
2023/01/12 01:44:53;;;;;;;6.97;1.83;;;;;;;8.29;100.00;100370.69;686093;28;1188;-63
2023/01/12 01:45:15;;;;;;;9.05;1.85;;;;;;;8.31;100.00;100365.47;686117;28;1268;-63
2023/01/12 01:45:36;;;;;;;10.02;1.90;;;;;;;8.26;100.00;100362.84;683470;28;1324;-63
2023/01/12 01:46:06;;;;;;;7.83;1.63;;;;;;;8.29;100.00;100367.19;682588;28;4432;-64
2023/01/12 01:46:47;;;;;;;6.55;1.77;;;;;;;8.23;100.00;100382.84;682273;28;1497;-63
2023/01/12 01:47:18;;;;;;;10.18;1.80;;;;;;;8.28;100.00;100366.34;679732;28;1181;-64
2023/01/12 01:47:41;;;;;;;9.90;1.70;;;;;;;8.29;100.00;100367.19;682954;28;1172;-62
2023/01/12 01:48:02;;;;;;;6.28;1.70;;;;;;;8.22;100.00;100370.69;682488;28;1960;-63
2023/01/12 01:48:23;;;;;;;6.30;1.83;;;;;;;8.27;100.00;100366.34;684976;28;1351;-63